Labrador Sea — WDD4810 — position and weather

sailwx.info

Track history (hours):
 
Tides and Currents Weather Stations Pressure Air Temp Water Temp Dewpoint Dewpoint Depression Visibility Wind Speed Wind Dir Waves Ship Positions

Labrador Sea

Owner: Kirby Offshore Marine, LLC, Houston, TX. More information available from US FCC via Universal Licensing System and Coast Guard Vessel Documentation Center.

Last reported at 2017-Dec-18 22:30 UTC. Time now 2017-Dec-18 22:32 UTC.
Position N 40°40' W 074°04'.

Length 25 m; draft 3.5 m.

Type: Towing. MMSI: 367149390.

Date/timePositionNaut miles runAvg speedWind from/ knotsBaromVisibWave heightAir tempDewpointWater temp
2017-Dec-18 22:30N 40°40' W 074°04'0 0.0
2017-Dec-18 22:00N 40°40' W 074°04'1 2.1
2017-Dec-18 21:30N 40°39' W 074°05'3 5.2
2017-Dec-18 21:00N 40°39' W 074°08'3 5.6
2017-Dec-18 20:29N 40°38' W 074°12'1 2.4
2017-Dec-18 20:00N 40°37' W 074°12'1 2.6
2017-Dec-18 19:30N 40°35' W 074°12'0 0.0
2017-Dec-18 18:58N 40°35' W 074°12'0 0.2
2017-Dec-18 18:28N 40°35' W 074°12'4 8.0
2017-Dec-18 18:00N 40°39' W 074°10'4 8.0
2017-Dec-18 17:30N 40°39' W 074°05'4 7.9
2017-Dec-18 17:00N 40°40' W 074°00'0 0.1
2017-Dec-18 16:30N 40°40' W 074°00'0 0.0
2017-Dec-18 16:00N 40°40' W 074°00'0 0.0
2017-Dec-18 15:30N 40°40' W 074°00'0 0.0
2017-Dec-18 15:00N 40°40' W 074°00'0 0.0
2017-Dec-18 14:30N 40°40' W 074°00'0 0.0
2017-Dec-18 14:00N 40°40' W 074°00'0 0.8
2017-Dec-18 13:30N 40°40' W 074°01'4 7.7
2017-Dec-18 13:00N 40°39' W 074°05'0 0.0
2017-Dec-18 12:30N 40°39' W 074°05'0 0.0
2017-Dec-18 11:59N 40°39' W 074°05'2 3.2
2017-Dec-18 11:30N 40°39' W 074°07'4 7.4
2017-Dec-18 11:00N 40°37' W 074°12'1 2.9
2017-Dec-18 10:30N 40°36' W 074°12'3 5.5
2017-Dec-18 10:00N 40°39' W 074°11'3 6.1
2017-Dec-18 09:30N 40°39' W 074°07'4 7.4
2017-Dec-18 09:01N 40°40' W 074°03'4 7.8
2017-Dec-18 08:31N 40°43' W 073°59'5 9.0
2017-Dec-18 08:00N 40°47' W 073°56'3 5.7
2017-Dec-18 07:27N 40°48' W 073°52'4 8.3
2017-Dec-18 06:59N 40°48' W 073°47'4 8.7
2017-Dec-18 06:30N 40°52' W 073°45'2 0.1
2017-Dec-17 15:27N 40°53' W 073°43'4 7.4
2017-Dec-17 14:58N 40°50' W 073°46'3 6.1
2017-Dec-17 14:30N 40°48' W 073°48'4 7.5
2017-Dec-17 14:00N 40°48' W 073°53'3 6.4
2017-Dec-17 13:30N 40°46' W 073°57'4 7.5
2017-Dec-17 13:00N 40°43' W 073°59'4 7.9
2017-Dec-17 12:30N 40°40' W 074°03'3 6.8
2017-Dec-17 12:00N 40°39' W 074°07'0 0.2
2017-Dec-17 11:30N 40°39' W 074°07'0 0.0
2017-Dec-17 11:00N 40°39' W 074°07'0 0.0
2017-Dec-17 10:30N 40°39' W 074°07'0 0.0
2017-Dec-17 10:00N 40°39' W 074°07'0 0.0
2017-Dec-17 09:30N 40°39' W 074°07'0 0.0
2017-Dec-17 09:00N 40°39' W 074°07'0 0.0
2017-Dec-17 08:30N 40°39' W 074°07'0 0.0
2017-Dec-17 08:00N 40°39' W 074°07'0 0.0
2017-Dec-17 07:30N 40°39' W 074°07'0 0.0
2017-Dec-17 07:01N 40°39' W 074°07'3 6.5
2017-Dec-17 06:30N 40°39' W 074°02'2 3.6
2017-Dec-17 06:00N 40°40' W 074°00'0 0.0
2017-Dec-17 05:30N 40°40' W 074°00'0 0.0
2017-Dec-17 05:00N 40°40' W 074°00'0 0.0
2017-Dec-17 04:30N 40°40' W 074°00'0 0.0
2017-Dec-17 04:01N 40°40' W 074°00'0 0.0
2017-Dec-17 03:31N 40°40' W 074°00'0 0.0
2017-Dec-17 03:00N 40°40' W 074°00'0 0.0
2017-Dec-17 02:30N 40°40' W 074°00'0 0.0
2017-Dec-17 02:00N 40°40' W 074°00'0 0.0
2017-Dec-17 01:30N 40°40' W 074°00'0 0.0
2017-Dec-17 01:00N 40°40' W 074°00'0 0.0
2017-Dec-17 00:31N 40°40' W 074°00'0 0.0
2017-Dec-17 00:01N 40°40' W 074°00'0 0.0
2017-Dec-16 23:30N 40°40' W 074°00'0 0.0
2017-Dec-16 23:00N 40°40' W 074°00'0 0.0
2017-Dec-16 22:30N 40°40' W 074°00'0 0.0
2017-Dec-16 22:00N 40°40' W 074°00'0 0.0
2017-Dec-16 21:30N 40°40' W 074°00'0 0.0
2017-Dec-16 21:00N 40°40' W 074°00'0 0.0
2017-Dec-16 20:30N 40°40' W 074°00'0 0.0
2017-Dec-16 20:00N 40°40' W 074°00'0 0.5
2017-Dec-16 19:31N 40°40' W 074°00'0 0.2
2017-Dec-16 19:00N 40°40' W 074°00'0 0.1
2017-Dec-16 18:30N 40°40' W 074°00'4 8.1
2017-Dec-16 18:00N 40°39' W 074°05'1 1.6
2017-Dec-16 17:30N 40°39' W 074°06'2 3.9
2017-Dec-16 17:00N 40°40' W 074°04'0 0.0
2017-Dec-16 16:31N 40°40' W 074°04'0 0.0
2017-Dec-16 16:00N 40°40' W 074°04'0 0.0
2017-Dec-16 15:30N 40°40' W 074°04'0 0.0
2017-Dec-16 15:00N 40°40' W 074°04'0 0.0
2017-Dec-16 14:30N 40°40' W 074°04'1 1.4
2017-Dec-16 14:00N 40°40' W 074°03'4 7.6
2017-Dec-16 13:30N 40°42' W 073°60'3 6.8
2017-Dec-16 13:00N 40°45' W 073°58'3 5.6
2017-Dec-16 12:30N 40°47' W 073°55'1 2.7
2017-Dec-16 11:59N 40°48' W 073°53'2 3.9
2017-Dec-16 11:30N 40°48' W 073°51'3 4.5
2017-Dec-16 10:56N 40°48' W 073°48'2 4.0
2017-Dec-16 10:30N 40°50' W 073°47'2 3.9
2017-Dec-16 10:00N 40°51' W 073°45'0 0.0
2017-Dec-15 08:33N 40°52' W 073°45'2 7.9
2017-Dec-15 08:20N 40°50' W 073°46'3 6.1
2017-Dec-15 07:53N 40°48' W 073°49'3 8.2
2017-Dec-15 07:30N 40°48' W 073°53'4 6.9
2017-Dec-15 06:59N 40°46' W 073°57'3 6.7
2017-Dec-15 06:30N 40°43' W 073°58'3 6.2
2017-Dec-15 06:00N 40°41' W 074°01'3 5.2
2017-Dec-15 05:30N 40°39' W 074°04'4 7.0
2017-Dec-15 05:00N 40°39' W 074°09'3 5.6
2017-Dec-15 04:30N 40°38' W 074°12'3 6.1
2017-Dec-15 03:59N 40°34' W 074°13'2 0.2
2017-Dec-14 18:26N 40°33' W 074°15'3 5.8
2017-Dec-14 17:57N 40°35' W 074°12'3 5.8
2017-Dec-14 17:30N 40°38' W 074°12'3 6.6
2017-Dec-14 17:00N 40°39' W 074°08'3 6.3
2017-Dec-14 16:30N 40°38' W 074°04'1 1.4
2017-Dec-14 16:01N 40°38' W 074°03'4 4.5
2017-Dec-14 15:01N 40°41' W 074°00'0 0.0
2017-Dec-14 14:30N 40°41' W 074°00'0 0.5
2017-Dec-14 14:00N 40°41' W 074°01'1 2.6
2017-Dec-14 13:30N 40°40' W 074°00'0 0.0
2017-Dec-14 13:00N 40°40' W 074°00'0 0.5
2017-Dec-14 12:30N 40°40' W 074°00'0 0.5
2017-Dec-14 12:00N 40°40' W 074°00'0 0.0
2017-Dec-14 11:30N 40°40' W 074°00'0 0.0
2017-Dec-14 11:00N 40°40' W 074°00'0 0.0
2017-Dec-14 10:30N 40°40' W 074°00'0 0.0
2017-Dec-14 10:00N 40°40' W 074°00'0 0.0
2017-Dec-14 09:30N 40°40' W 074°00'0 0.0
2017-Dec-14 09:01N 40°40' W 074°00'0 0.0
2017-Dec-14 08:30N 40°40' W 074°00'0 0.0
2017-Dec-14 08:01N 40°40' W 074°00'0 0.0
2017-Dec-14 07:30N 40°40' W 074°00'0 0.0
2017-Dec-14 07:00N 40°40' W 074°00'0 0.0
2017-Dec-14 06:31N 40°40' W 074°00'0 0.0
2017-Dec-14 06:00N 40°40' W 074°00'0 0.0
2017-Dec-14 05:30N 40°40' W 074°00'0 0.0
2017-Dec-14 05:00N 40°40' W 074°00'0 0.0
2017-Dec-14 04:31N 40°40' W 074°00'0 0.0
2017-Dec-14 04:00N 40°40' W 074°00'0 0.0
2017-Dec-14 03:30N 40°40' W 074°00'0 0.0
2017-Dec-14 03:00N 40°40' W 074°00'0 0.0
2017-Dec-14 02:30N 40°40' W 074°00'0 0.0
2017-Dec-14 02:00N 40°40' W 074°00'0 0.0
2017-Dec-14 01:30N 40°40' W 074°00'0 0.0
2017-Dec-14 01:01N 40°40' W 074°00'0 0.0
2017-Dec-14 00:31N 40°40' W 074°00'0 0.0
2017-Dec-14 00:00N 40°40' W 074°00'0 0.0
2017-Dec-13 23:31N 40°40' W 074°00'0 0.0
2017-Dec-13 23:01N 40°40' W 074°00'0 0.0
2017-Dec-13 22:30N 40°40' W 074°00'0 0.0
2017-Dec-13 22:00N 40°40' W 074°00'0 0.0
2017-Dec-13 21:30N 40°40' W 074°00'0 0.0
2017-Dec-13 21:00N 40°40' W 074°00'0 0.0
2017-Dec-13 20:30N 40°40' W 074°00'3 6.0
2017-Dec-13 20:00N 40°39' W 074°04'4 7.2
2017-Dec-13 19:30N 40°39' W 074°09'3 5.8
2017-Dec-13 19:00N 40°42' W 074°08'0 0.0
2017-Dec-13 18:30N 40°42' W 074°08'3 5.9
2017-Dec-13 18:00N 40°39' W 074°08'4 8.5
2017-Dec-13 17:30N 40°39' W 074°03'2 4.5
2017-Dec-13 17:00N 40°40' W 074°00'0 0.5
2017-Dec-13 16:31N 40°40' W 074°00'0 0.0
2017-Dec-13 16:00N 40°40' W 074°00'0 0.0
2017-Dec-13 15:30N 40°40' W 074°00'0 0.0
2017-Dec-13 15:00N 40°40' W 074°00'0 0.0
2017-Dec-13 14:31N 40°40' W 074°00'0 0.0
2017-Dec-13 14:01N 40°40' W 074°00'0 0.0
2017-Dec-13 13:30N 40°40' W 074°00'0 0.0
2017-Dec-13 13:00N 40°40' W 074°00'0 0.0
2017-Dec-13 12:30N 40°40' W 074°00'0 0.0
2017-Dec-13 12:00N 40°40' W 074°00'0 0.0
2017-Dec-13 11:31N 40°40' W 074°00'0 0.0
2017-Dec-13 11:00N 40°40' W 074°00'0 0.0
2017-Dec-13 10:30N 40°40' W 074°00'0 0.5
2017-Dec-13 10:00N 40°40' W 074°00'0 0.0
2017-Dec-13 09:30N 40°40' W 074°00'0 0.0
2017-Dec-13 09:00N 40°40' W 074°00'0 0.0
2017-Dec-13 08:30N 40°40' W 074°00'0 0.0
2017-Dec-13 08:00N 40°40' W 074°00'0 0.0
2017-Dec-13 07:30N 40°40' W 074°00'0 0.0
2017-Dec-13 07:00N 40°40' W 074°00'0 0.0
2017-Dec-13 06:30N 40°40' W 074°00'0 0.0
2017-Dec-13 06:01N 40°40' W 074°00'0 0.0
2017-Dec-13 05:30N 40°40' W 074°00'0 0.0
2017-Dec-13 05:01N 40°40' W 074°00'0 0.0
2017-Dec-13 04:30N 40°40' W 074°00'0 0.0
2017-Dec-13 04:00N 40°40' W 074°00'0 0.0
2017-Dec-13 03:30N 40°40' W 074°00'0 0.0
2017-Dec-13 03:00N 40°40' W 074°00'0 0.0
2017-Dec-13 02:30N 40°40' W 074°00'0 0.0
2017-Dec-13 02:00N 40°40' W 074°00'0 0.0
2017-Dec-13 01:31N 40°40' W 074°00'0 0.0
2017-Dec-13 01:00N 40°40' W 074°00'0 0.0
2017-Dec-13 00:30N 40°40' W 074°00'0 0.0
2017-Dec-13 00:00N 40°40' W 074°00'0 0.0
2017-Dec-12 23:30N 40°40' W 074°00'0 0.0
2017-Dec-12 23:00N 40°40' W 074°00'0 0.0
2017-Dec-12 22:30N 40°40' W 074°00'0 0.0
2017-Dec-12 22:00N 40°40' W 074°00'0 0.0
2017-Dec-12 21:30N 40°40' W 074°00'0 0.1
2017-Dec-12 21:01N 40°40' W 074°00'2 4.3
2017-Dec-12 20:30N 40°39' W 074°03'5 9.1
2017-Dec-12 20:00N 40°38' W 074°09'1 2.1
2017-Dec-12 19:30N 40°39' W 074°10'2 4.7
2017-Dec-12 19:00N 40°39' W 074°07'4 8.8
2017-Dec-12 18:30N 40°40' W 074°01'1 2.0
2017-Dec-12 18:00N 40°40' W 074°00'0 0.0
2017-Dec-12 17:31N 40°40' W 074°00'0 0.0
2017-Dec-12 17:00N 40°40' W 074°00'0 0.0
2017-Dec-12 16:30N 40°40' W 074°00'0 0.5
2017-Dec-12 16:00N 40°40' W 074°00'0 0.0
2017-Dec-12 15:30N 40°40' W 074°00'0 0.0
2017-Dec-12 15:00N 40°40' W 074°00'0 0.0
2017-Dec-12 14:30N 40°40' W 074°00'0 0.0
2017-Dec-12 14:01N 40°40' W 074°00'0 0.0
2017-Dec-12 13:30N 40°40' W 074°00'0 0.0
2017-Dec-12 13:00N 40°40' W 074°00'0 0.0
2017-Dec-12 12:30N 40°40' W 074°00'0 0.0
2017-Dec-12 12:00N 40°40' W 074°00'0 0.0
2017-Dec-12 11:30N 40°40' W 074°00'0 0.0
2017-Dec-12 11:00N 40°40' W 074°00'0 0.0
2017-Dec-12 10:30N 40°40' W 074°00'0 0.0
2017-Dec-12 10:00N 40°40' W 074°00'0 0.0
2017-Dec-12 09:30N 40°40' W 074°00'0 0.0
2017-Dec-12 09:01N 40°40' W 074°00'0 0.0
2017-Dec-12 08:31N 40°40' W 074°00'0 0.0
2017-Dec-12 08:01N 40°40' W 074°00'0 0.0
2017-Dec-12 07:30N 40°40' W 074°00'0 0.0
2017-Dec-12 07:00N 40°40' W 074°00'0 0.0
2017-Dec-12 06:31N 40°40' W 074°00'0 0.0
2017-Dec-12 06:00N 40°40' W 074°00'0 0.0
2017-Dec-12 05:30N 40°40' W 074°00'0 0.0
2017-Dec-12 05:00N 40°40' W 074°00'0 0.0
2017-Dec-12 04:30N 40°40' W 074°00'0 0.0
2017-Dec-12 04:01N 40°40' W 074°00'0 0.0
2017-Dec-12 03:30N 40°40' W 074°00'0 0.0
2017-Dec-12 03:00N 40°40' W 074°00'0 0.0
2017-Dec-12 02:31N 40°40' W 074°00'0 0.0
2017-Dec-12 02:00N 40°40' W 074°00'0 0.0
2017-Dec-12 01:30N 40°40' W 074°00'0 0.0
2017-Dec-12 01:00N 40°40' W 074°00'0 0.0
2017-Dec-12 00:30N 40°40' W 074°00'0 0.0
2017-Dec-12 00:00N 40°40' W 074°00'0 0.0
2017-Dec-11 23:30N 40°40' W 074°00'0 0.0
2017-Dec-11 23:00N 40°40' W 074°00'0 0.0
2017-Dec-11 22:30N 40°40' W 074°00'0 0.0
2017-Dec-11 22:00N 40°40' W 074°00'0 0.0
2017-Dec-11 21:30N 40°40' W 074°00'0 0.0
2017-Dec-11 21:00N 40°40' W 074°00'0 0.6
2017-Dec-11 20:30N 40°40' W 074°00'0 0.0
2017-Dec-11 20:01N 40°40' W 074°00'0 0.0
2017-Dec-11 19:30N 40°40' W 074°00'0 0.0
2017-Dec-11 19:00N 40°40' W 074°00'0 0.0
2017-Dec-11 18:31N 40°40' W 074°00'0 0.0
2017-Dec-11 18:00N 40°40' W 074°00'0 0.0
2017-Dec-11 17:31N 40°40' W 074°00'0 0.0
2017-Dec-11 17:00N 40°40' W 074°00'0 0.0
2017-Dec-11 16:30N 40°40' W 074°00'1 2.2
2017-Dec-11 16:00N 40°41' W 074°01'1 2.1
2017-Dec-11 15:30N 40°41' W 074°00'0 0.0
2017-Dec-11 15:00N 40°41' W 074°00'0 0.0
2017-Dec-11 14:30N 40°41' W 074°00'0 0.5
2017-Dec-11 14:00N 40°41' W 074°00'1 2.6
2017-Dec-11 13:30N 40°40' W 074°00'0 0.0
2017-Dec-11 13:01N 40°40' W 074°00'0 0.0
2017-Dec-11 12:31N 40°40' W 074°00'0 0.0
2017-Dec-11 12:00N 40°40' W 074°00'0 0.0
2017-Dec-11 11:30N 40°40' W 074°00'0 0.0
2017-Dec-11 11:00N 40°40' W 074°00'0 0.0
2017-Dec-11 10:30N 40°40' W 074°00'0 0.0
2017-Dec-11 10:00N 40°40' W 074°00'0 0.0
2017-Dec-11 09:30N 40°40' W 074°00'0 0.0
2017-Dec-11 09:00N 40°40' W 074°00'0 0.0
2017-Dec-11 08:31N 40°40' W 074°00'0 0.0
2017-Dec-11 08:00N 40°40' W 074°00'0 0.0
2017-Dec-11 07:30N 40°40' W 074°00'0 0.0
2017-Dec-11 07:00N 40°40' W 074°00'0 0.0
2017-Dec-11 06:30N 40°40' W 074°00'0 0.0
2017-Dec-11 06:01N 40°40' W 074°00'0 0.0
2017-Dec-11 05:30N 40°40' W 074°00'0 0.0
2017-Dec-11 05:00N 40°40' W 074°00'0 0.0
2017-Dec-11 04:31N 40°40' W 074°00'0 0.0
2017-Dec-11 04:00N 40°40' W 074°00'0 0.0
2017-Dec-11 03:30N 40°40' W 074°00'0 0.0
2017-Dec-11 03:01N 40°40' W 074°00'0 0.0
2017-Dec-11 02:31N 40°40' W 074°00'0 0.0
2017-Dec-11 02:00N 40°40' W 074°00'0 0.0
2017-Dec-11 01:30N 40°40' W 074°00'0 0.0
2017-Dec-11 01:01N 40°40' W 074°00'0 0.0
2017-Dec-11 00:30N 40°40' W 074°00'0 0.0
2017-Dec-11 00:00N 40°40' W 074°00'0 0.0
2017-Dec-10 23:30N 40°40' W 074°00'0 0.0
2017-Dec-10 23:01N 40°40' W 074°00'0 0.0
2017-Dec-10 22:30N 40°40' W 074°00'0 0.0
2017-Dec-10 22:00N 40°40' W 074°00'0 0.0
2017-Dec-10 21:31N 40°40' W 074°00'0 0.0
2017-Dec-10 21:00N 40°40' W 074°00'0 0.0
2017-Dec-10 20:30N 40°40' W 074°00'0 0.0
2017-Dec-10 20:00N 40°40' W 074°00'0 0.0
2017-Dec-10 19:30N 40°40' W 074°00'0 0.0
2017-Dec-10 19:00N 40°40' W 074°00'0 0.6
2017-Dec-10 18:30N 40°40' W 074°00'0 0.0
2017-Dec-10 18:00N 40°40' W 074°00'0 0.0
2017-Dec-10 17:30N 40°40' W 074°00'0 0.0
2017-Dec-10 17:00N 40°40' W 074°00'0 0.0
2017-Dec-10 16:30N 40°40' W 074°00'0 0.0
2017-Dec-10 16:01N 40°40' W 074°00'0 0.0
2017-Dec-10 15:30N 40°40' W 074°00'0 0.0
2017-Dec-10 15:00N 40°40' W 074°00'0 0.0
2017-Dec-10 14:30N 40°40' W 074°00'0 0.0
2017-Dec-10 14:00N 40°40' W 074°00'0 0.0
2017-Dec-10 13:31N 40°40' W 074°00'0 0.0
2017-Dec-10 13:00N 40°40' W 074°00'0 0.0
2017-Dec-10 12:30N 40°40' W 074°00'0 0.0
2017-Dec-10 12:00N 40°40' W 074°00'0 0.0
2017-Dec-10 11:30N 40°40' W 074°00'0 0.0
2017-Dec-10 11:00N 40°40' W 074°00'0 0.0
2017-Dec-10 10:30N 40°40' W 074°00'0 0.0
2017-Dec-10 10:00N 40°40' W 074°00'0 0.0
2017-Dec-10 09:30N 40°40' W 074°00'0 0.0
2017-Dec-10 09:00N 40°40' W 074°00'0 0.0
2017-Dec-10 08:31N 40°40' W 074°00'0 0.0
2017-Dec-10 08:01N 40°40' W 074°00'0 0.0
2017-Dec-10 07:31N 40°40' W 074°00'0 0.0
2017-Dec-10 07:00N 40°40' W 074°00'0 0.0
2017-Dec-10 06:30N 40°40' W 074°00'0 0.0
2017-Dec-10 06:01N 40°40' W 074°00'0 0.0
2017-Dec-10 05:30N 40°40' W 074°00'0 0.0
2017-Dec-10 05:01N 40°40' W 074°00'0 0.0
2017-Dec-10 04:30N 40°40' W 074°00'0 0.0
2017-Dec-10 04:00N 40°40' W 074°00'0 0.0
2017-Dec-10 03:31N 40°40' W 074°00'0 0.0
2017-Dec-10 03:00N 40°40' W 074°00'0 0.0
2017-Dec-10 02:31N 40°40' W 074°00'0 0.0
2017-Dec-10 02:00N 40°40' W 074°00'0 0.0
2017-Dec-10 01:30N 40°40' W 074°00'1 2.1
2017-Dec-10 01:00N 40°41' W 074°01'1 2.4
2017-Dec-10 00:30N 40°40' W 074°01'0 0.2
2017-Dec-10 00:00N 40°40' W 074°01'3 7.0
2017-Dec-09 23:30N 40°39' W 074°05'4 7.7
2017-Dec-09 23:00N 40°40' W 074°00'0 0.0
2017-Dec-09 22:30N 40°40' W 074°00'0 0.5
2017-Dec-09 22:01N 40°40' W 074°00'0 0.0
2017-Dec-09 21:30N 40°40' W 074°00'0 0.0
2017-Dec-09 21:00N 40°40' W 074°00'0 0.0
2017-Dec-09 20:30N 40°40' W 074°00'0 0.0
2017-Dec-09 20:00N 40°40' W 074°00'0 0.5
2017-Dec-09 19:30N 40°40' W 074°00'0 0.5
2017-Dec-09 19:00N 40°40' W 074°00'0 0.0
2017-Dec-09 18:30N 40°40' W 074°00'0 0.0
2017-Dec-09 18:00N 40°40' W 074°00'0 0.0
2017-Dec-09 17:31N 40°40' W 074°00'0 0.0
2017-Dec-09 17:00N 40°40' W 074°00'0 0.0
2017-Dec-09 16:30N 40°40' W 074°00'0 0.0
2017-Dec-09 16:00N 40°40' W 074°00'0 0.0
2017-Dec-09 15:30N 40°40' W 074°00'0 0.0
2017-Dec-09 15:00N 40°40' W 074°00'0 0.0
2017-Dec-09 14:30N 40°40' W 074°00'0 0.0
2017-Dec-09 14:00N 40°40' W 074°00'0 0.0
2017-Dec-09 13:30N 40°40' W 074°00'0 0.0
2017-Dec-09 13:00N 40°40' W 074°00'0 0.0
2017-Dec-09 12:30N 40°40' W 074°00'0 0.0
2017-Dec-09 12:00N 40°40' W 074°00'0 0.0
2017-Dec-09 11:30N 40°40' W 074°00'0 0.0
2017-Dec-09 11:00N 40°40' W 074°00'0 0.0
2017-Dec-09 10:30N 40°40' W 074°00'0 0.0
2017-Dec-09 10:00N 40°40' W 074°00'0 0.0
2017-Dec-09 09:30N 40°40' W 074°00'0 0.0
2017-Dec-09 09:00N 40°40' W 074°00'0 0.0
2017-Dec-09 08:30N 40°40' W 074°00'0 0.0
2017-Dec-09 08:01N 40°40' W 074°00'0 0.0
2017-Dec-09 07:30N 40°40' W 074°00'0 0.0
2017-Dec-09 07:00N 40°40' W 074°00'0 0.0
2017-Dec-09 06:30N 40°40' W 074°00'0 0.5
2017-Dec-09 06:00N 40°40' W 074°00'1 1.4
2017-Dec-09 05:30N 40°40' W 074°01'0 0.1
2017-Dec-09 05:00N 40°40' W 074°01'0 0.0
2017-Dec-09 04:30N 40°40' W 074°01'0 0.0
2017-Dec-09 04:00N 40°40' W 074°01'1 1.1
2017-Dec-09 03:30N 40°40' W 074°00'0 0.0
2017-Dec-09 03:00N 40°40' W 074°00'0 0.0
2017-Dec-09 02:30N 40°40' W 074°00'0 0.0
2017-Dec-09 02:00N 40°40' W 074°00'0 0.0
2017-Dec-09 01:30N 40°40' W 074°00'0 0.0
2017-Dec-09 01:00N 40°40' W 074°00'0 0.0
2017-Dec-09 00:30N 40°40' W 074°00'0 0.0
2017-Dec-09 00:00N 40°40' W 074°00'0 0.0
2017-Dec-08 23:30N 40°40' W 074°00'0 0.0
2017-Dec-08 23:00N 40°40' W 074°00'0 0.0
2017-Dec-08 22:30N 40°40' W 074°00'  
Track history (hours):
 
Tides and Currents Weather Stations Pressure Air Temp Water Temp Dewpoint Dewpoint Depression Visibility Wind Speed Wind Dir Waves Ship Positions

Labrador Sea

Owner: Kirby Offshore Marine, LLC, Houston, TX. More information available from US FCC via Universal Licensing System and Coast Guard Vessel Documentation Center.

Last reported at 2017-Dec-18 22:30 UTC. Time now 2017-Dec-18 22:32 UTC.
Position N 40°40' W 074°04'.

Length 25 m; draft 3.5 m.

Type: Towing. MMSI: 367149390.

Date/timePositionNaut miles runAvg speedWind from/ knotsBaromVisibWave heightAir tempDewpointWater temp
2017-Dec-18 22:30N 40°40' W 074°04'0 0.0
2017-Dec-18 22:00N 40°40' W 074°04'1 2.1
2017-Dec-18 21:30N 40°39' W 074°05'3 5.2
2017-Dec-18 21:00N 40°39' W 074°08'3 5.6
2017-Dec-18 20:29N 40°38' W 074°12'1 2.4
2017-Dec-18 20:00N 40°37' W 074°12'1 2.6
2017-Dec-18 19:30N 40°35' W 074°12'0 0.0
2017-Dec-18 18:58N 40°35' W 074°12'0 0.2
2017-Dec-18 18:28N 40°35' W 074°12'4 8.0
2017-Dec-18 18:00N 40°39' W 074°10'4 8.0
2017-Dec-18 17:30N 40°39' W 074°05'4 7.9
2017-Dec-18 17:00N 40°40' W 074°00'0 0.1
2017-Dec-18 16:30N 40°40' W 074°00'0 0.0
2017-Dec-18 16:00N 40°40' W 074°00'0 0.0
2017-Dec-18 15:30N 40°40' W 074°00'0 0.0
2017-Dec-18 15:00N 40°40' W 074°00'0 0.0
2017-Dec-18 14:30N 40°40' W 074°00'0 0.0
2017-Dec-18 14:00N 40°40' W 074°00'0 0.8
2017-Dec-18 13:30N 40°40' W 074°01'4 7.7
2017-Dec-18 13:00N 40°39' W 074°05'0 0.0
2017-Dec-18 12:30N 40°39' W 074°05'0 0.0
2017-Dec-18 11:59N 40°39' W 074°05'2 3.2
2017-Dec-18 11:30N 40°39' W 074°07'4 7.4
2017-Dec-18 11:00N 40°37' W 074°12'1 2.9
2017-Dec-18 10:30N 40°36' W 074°12'3 5.5
2017-Dec-18 10:00N 40°39' W 074°11'3 6.1
2017-Dec-18 09:30N 40°39' W 074°07'4 7.4
2017-Dec-18 09:01N 40°40' W 074°03'4 7.8
2017-Dec-18 08:31N 40°43' W 073°59'5 9.0
2017-Dec-18 08:00N 40°47' W 073°56'3 5.7
2017-Dec-18 07:27N 40°48' W 073°52'4 8.3
2017-Dec-18 06:59N 40°48' W 073°47'4 8.7
2017-Dec-18 06:30N 40°52' W 073°45'2 0.1
2017-Dec-17 15:27N 40°53' W 073°43'4 7.4
2017-Dec-17 14:58N 40°50' W 073°46'3 6.1
2017-Dec-17 14:30N 40°48' W 073°48'4 7.5
2017-Dec-17 14:00N 40°48' W 073°53'3 6.4
2017-Dec-17 13:30N 40°46' W 073°57'4 7.5
2017-Dec-17 13:00N 40°43' W 073°59'4 7.9
2017-Dec-17 12:30N 40°40' W 074°03'3 6.8
2017-Dec-17 12:00N 40°39' W 074°07'0 0.2
2017-Dec-17 11:30N 40°39' W 074°07'0 0.0
2017-Dec-17 11:00N 40°39' W 074°07'0 0.0
2017-Dec-17 10:30N 40°39' W 074°07'0 0.0
2017-Dec-17 10:00N 40°39' W 074°07'0 0.0
2017-Dec-17 09:30N 40°39' W 074°07'0 0.0
2017-Dec-17 09:00N 40°39' W 074°07'0 0.0
2017-Dec-17 08:30N 40°39' W 074°07'0 0.0
2017-Dec-17 08:00N 40°39' W 074°07'0 0.0
2017-Dec-17 07:30N 40°39' W 074°07'0 0.0
2017-Dec-17 07:01N 40°39' W 074°07'3 6.5
2017-Dec-17 06:30N 40°39' W 074°02'2 3.6
2017-Dec-17 06:00N 40°40' W 074°00'0 0.0
2017-Dec-17 05:30N 40°40' W 074°00'0 0.0
2017-Dec-17 05:00N 40°40' W 074°00'0 0.0
2017-Dec-17 04:30N 40°40' W 074°00'0 0.0
2017-Dec-17 04:01N 40°40' W 074°00'0 0.0
2017-Dec-17 03:31N 40°40' W 074°00'0 0.0
2017-Dec-17 03:00N 40°40' W 074°00'0 0.0
2017-Dec-17 02:30N 40°40' W 074°00'0 0.0
2017-Dec-17 02:00N 40°40' W 074°00'0 0.0
2017-Dec-17 01:30N 40°40' W 074°00'0 0.0
2017-Dec-17 01:00N 40°40' W 074°00'0 0.0
2017-Dec-17 00:31N 40°40' W 074°00'0 0.0
2017-Dec-17 00:01N 40°40' W 074°00'0 0.0
2017-Dec-16 23:30N 40°40' W 074°00'0 0.0
2017-Dec-16 23:00N 40°40' W 074°00'0 0.0
2017-Dec-16 22:30N 40°40' W 074°00'0 0.0
2017-Dec-16 22:00N 40°40' W 074°00'0 0.0
2017-Dec-16 21:30N 40°40' W 074°00'0 0.0
2017-Dec-16 21:00N 40°40' W 074°00'0 0.0
2017-Dec-16 20:30N 40°40' W 074°00'0 0.0
2017-Dec-16 20:00N 40°40' W 074°00'0 0.5
2017-Dec-16 19:31N 40°40' W 074°00'0 0.2
2017-Dec-16 19:00N 40°40' W 074°00'0 0.1
2017-Dec-16 18:30N 40°40' W 074°00'4 8.1
2017-Dec-16 18:00N 40°39' W 074°05'1 1.6
2017-Dec-16 17:30N 40°39' W 074°06'2 3.9
2017-Dec-16 17:00N 40°40' W 074°04'0 0.0
2017-Dec-16 16:31N 40°40' W 074°04'0 0.0
2017-Dec-16 16:00N 40°40' W 074°04'0 0.0
2017-Dec-16 15:30N 40°40' W 074°04'0 0.0
2017-Dec-16 15:00N 40°40' W 074°04'0 0.0
2017-Dec-16 14:30N 40°40' W 074°04'1 1.4
2017-Dec-16 14:00N 40°40' W 074°03'4 7.6
2017-Dec-16 13:30N 40°42' W 073°60'3 6.8
2017-Dec-16 13:00N 40°45' W 073°58'3 5.6
2017-Dec-16 12:30N 40°47' W 073°55'1 2.7
2017-Dec-16 11:59N 40°48' W 073°53'2 3.9
2017-Dec-16 11:30N 40°48' W 073°51'3 4.5
2017-Dec-16 10:56N 40°48' W 073°48'2 4.0
2017-Dec-16 10:30N 40°50' W 073°47'2 3.9
2017-Dec-16 10:00N 40°51' W 073°45'0 0.0
2017-Dec-15 08:33N 40°52' W 073°45'2 7.9
2017-Dec-15 08:20N 40°50' W 073°46'3 6.1
2017-Dec-15 07:53N 40°48' W 073°49'3 8.2
2017-Dec-15 07:30N 40°48' W 073°53'4 6.9
2017-Dec-15 06:59N 40°46' W 073°57'3 6.7
2017-Dec-15 06:30N 40°43' W 073°58'3 6.2
2017-Dec-15 06:00N 40°41' W 074°01'3 5.2
2017-Dec-15 05:30N 40°39' W 074°04'4 7.0
2017-Dec-15 05:00N 40°39' W 074°09'3 5.6
2017-Dec-15 04:30N 40°38' W 074°12'3 6.1
2017-Dec-15 03:59N 40°34' W 074°13'2 0.2
2017-Dec-14 18:26N 40°33' W 074°15'3 5.8
2017-Dec-14 17:57N 40°35' W 074°12'3 5.8
2017-Dec-14 17:30N 40°38' W 074°12'3 6.6
2017-Dec-14 17:00N 40°39' W 074°08'3 6.3
2017-Dec-14 16:30N 40°38' W 074°04'1 1.4
2017-Dec-14 16:01N 40°38' W 074°03'4 4.5
2017-Dec-14 15:01N 40°41' W 074°00'0 0.0
2017-Dec-14 14:30N 40°41' W 074°00'0 0.5
2017-Dec-14 14:00N 40°41' W 074°01'1 2.6
2017-Dec-14 13:30N 40°40' W 074°00'0 0.0
2017-Dec-14 13:00N 40°40' W 074°00'0 0.5
2017-Dec-14 12:30N 40°40' W 074°00'0 0.5
2017-Dec-14 12:00N 40°40' W 074°00'0 0.0
2017-Dec-14 11:30N 40°40' W 074°00'0 0.0
2017-Dec-14 11:00N 40°40' W 074°00'0 0.0
2017-Dec-14 10:30N 40°40' W 074°00'0 0.0
2017-Dec-14 10:00N 40°40' W 074°00'0 0.0
2017-Dec-14 09:30N 40°40' W 074°00'0 0.0
2017-Dec-14 09:01N 40°40' W 074°00'0 0.0
2017-Dec-14 08:30N 40°40' W 074°00'0 0.0
2017-Dec-14 08:01N 40°40' W 074°00'0 0.0
2017-Dec-14 07:30N 40°40' W 074°00'0 0.0
2017-Dec-14 07:00N 40°40' W 074°00'0 0.0
2017-Dec-14 06:31N 40°40' W 074°00'0 0.0
2017-Dec-14 06:00N 40°40' W 074°00'0 0.0
2017-Dec-14 05:30N 40°40' W 074°00'0 0.0
2017-Dec-14 05:00N 40°40' W 074°00'0 0.0
2017-Dec-14 04:31N 40°40' W 074°00'0 0.0
2017-Dec-14 04:00N 40°40' W 074°00'0 0.0
2017-Dec-14 03:30N 40°40' W 074°00'0 0.0
2017-Dec-14 03:00N 40°40' W 074°00'0 0.0
2017-Dec-14 02:30N 40°40' W 074°00'0 0.0
2017-Dec-14 02:00N 40°40' W 074°00'0 0.0
2017-Dec-14 01:30N 40°40' W 074°00'0 0.0
2017-Dec-14 01:01N 40°40' W 074°00'0 0.0
2017-Dec-14 00:31N 40°40' W 074°00'0 0.0
2017-Dec-14 00:00N 40°40' W 074°00'0 0.0
2017-Dec-13 23:31N 40°40' W 074°00'0 0.0
2017-Dec-13 23:01N 40°40' W 074°00'0 0.0
2017-Dec-13 22:30N 40°40' W 074°00'0 0.0
2017-Dec-13 22:00N 40°40' W 074°00'0 0.0
2017-Dec-13 21:30N 40°40' W 074°00'0 0.0
2017-Dec-13 21:00N 40°40' W 074°00'0 0.0
2017-Dec-13 20:30N 40°40' W 074°00'3 6.0
2017-Dec-13 20:00N 40°39' W 074°04'4 7.2
2017-Dec-13 19:30N 40°39' W 074°09'3 5.8
2017-Dec-13 19:00N 40°42' W 074°08'0 0.0
2017-Dec-13 18:30N 40°42' W 074°08'3 5.9
2017-Dec-13 18:00N 40°39' W 074°08'4 8.5
2017-Dec-13 17:30N 40°39' W 074°03'2 4.5
2017-Dec-13 17:00N 40°40' W 074°00'0 0.5
2017-Dec-13 16:31N 40°40' W 074°00'0 0.0
2017-Dec-13 16:00N 40°40' W 074°00'0 0.0
2017-Dec-13 15:30N 40°40' W 074°00'0 0.0
2017-Dec-13 15:00N 40°40' W 074°00'0 0.0
2017-Dec-13 14:31N 40°40' W 074°00'0 0.0
2017-Dec-13 14:01N 40°40' W 074°00'0 0.0
2017-Dec-13 13:30N 40°40' W 074°00'0 0.0
2017-Dec-13 13:00N 40°40' W 074°00'0 0.0
2017-Dec-13 12:30N 40°40' W 074°00'0 0.0
2017-Dec-13 12:00N 40°40' W 074°00'0 0.0
2017-Dec-13 11:31N 40°40' W 074°00'0 0.0
2017-Dec-13 11:00N 40°40' W 074°00'0 0.0
2017-Dec-13 10:30N 40°40' W 074°00'0 0.5
2017-Dec-13 10:00N 40°40' W 074°00'0 0.0
2017-Dec-13 09:30N 40°40' W 074°00'0 0.0
2017-Dec-13 09:00N 40°40' W 074°00'0 0.0
2017-Dec-13 08:30N 40°40' W 074°00'0 0.0
2017-Dec-13 08:00N 40°40' W 074°00'0 0.0
2017-Dec-13 07:30N 40°40' W 074°00'0 0.0
2017-Dec-13 07:00N 40°40' W 074°00'0 0.0
2017-Dec-13 06:30N 40°40' W 074°00'0 0.0
2017-Dec-13 06:01N 40°40' W 074°00'0 0.0
2017-Dec-13 05:30N 40°40' W 074°00'0 0.0
2017-Dec-13 05:01N 40°40' W 074°00'0 0.0
2017-Dec-13 04:30N 40°40' W 074°00'0 0.0
2017-Dec-13 04:00N 40°40' W 074°00'0 0.0
2017-Dec-13 03:30N 40°40' W 074°00'0 0.0
2017-Dec-13 03:00N 40°40' W 074°00'0 0.0
2017-Dec-13 02:30N 40°40' W 074°00'0 0.0
2017-Dec-13 02:00N 40°40' W 074°00'0 0.0
2017-Dec-13 01:31N 40°40' W 074°00'0 0.0
2017-Dec-13 01:00N 40°40' W 074°00'0 0.0
2017-Dec-13 00:30N 40°40' W 074°00'0 0.0
2017-Dec-13 00:00N 40°40' W 074°00'0 0.0
2017-Dec-12 23:30N 40°40' W 074°00'0 0.0
2017-Dec-12 23:00N 40°40' W 074°00'0 0.0
2017-Dec-12 22:30N 40°40' W 074°00'0 0.0
2017-Dec-12 22:00N 40°40' W 074°00'0 0.0
2017-Dec-12 21:30N 40°40' W 074°00'0 0.1
2017-Dec-12 21:01N 40°40' W 074°00'2 4.3
2017-Dec-12 20:30N 40°39' W 074°03'5 9.1
2017-Dec-12 20:00N 40°38' W 074°09'1 2.1
2017-Dec-12 19:30N 40°39' W 074°10'2 4.7
2017-Dec-12 19:00N 40°39' W 074°07'4 8.8
2017-Dec-12 18:30N 40°40' W 074°01'1 2.0
2017-Dec-12 18:00N 40°40' W 074°00'0 0.0
2017-Dec-12 17:31N 40°40' W 074°00'0 0.0
2017-Dec-12 17:00N 40°40' W 074°00'0 0.0
2017-Dec-12 16:30N 40°40' W 074°00'0 0.5
2017-Dec-12 16:00N 40°40' W 074°00'0 0.0
2017-Dec-12 15:30N 40°40' W 074°00'0 0.0
2017-Dec-12 15:00N 40°40' W 074°00'0 0.0
2017-Dec-12 14:30N 40°40' W 074°00'0 0.0
2017-Dec-12 14:01N 40°40' W 074°00'0 0.0
2017-Dec-12 13:30N 40°40' W 074°00'0 0.0
2017-Dec-12 13:00N 40°40' W 074°00'0 0.0
2017-Dec-12 12:30N 40°40' W 074°00'0 0.0
2017-Dec-12 12:00N 40°40' W 074°00'0 0.0
2017-Dec-12 11:30N 40°40' W 074°00'0 0.0
2017-Dec-12 11:00N 40°40' W 074°00'0 0.0
2017-Dec-12 10:30N 40°40' W 074°00'0 0.0
2017-Dec-12 10:00N 40°40' W 074°00'0 0.0
2017-Dec-12 09:30N 40°40' W 074°00'0 0.0
2017-Dec-12 09:01N 40°40' W 074°00'0 0.0
2017-Dec-12 08:31N 40°40' W 074°00'0 0.0
2017-Dec-12 08:01N 40°40' W 074°00'0 0.0
2017-Dec-12 07:30N 40°40' W 074°00'0 0.0
2017-Dec-12 07:00N 40°40' W 074°00'0 0.0
2017-Dec-12 06:31N 40°40' W 074°00'0 0.0
2017-Dec-12 06:00N 40°40' W 074°00'0 0.0
2017-Dec-12 05:30N 40°40' W 074°00'0 0.0
2017-Dec-12 05:00N 40°40' W 074°00'0 0.0
2017-Dec-12 04:30N 40°40' W 074°00'0 0.0
2017-Dec-12 04:01N 40°40' W 074°00'0 0.0
2017-Dec-12 03:30N 40°40' W 074°00'0 0.0
2017-Dec-12 03:00N 40°40' W 074°00'0 0.0
2017-Dec-12 02:31N 40°40' W 074°00'0 0.0
2017-Dec-12 02:00N 40°40' W 074°00'0 0.0
2017-Dec-12 01:30N 40°40' W 074°00'0 0.0
2017-Dec-12 01:00N 40°40' W 074°00'0 0.0
2017-Dec-12 00:30N 40°40' W 074°00'0 0.0
2017-Dec-12 00:00N 40°40' W 074°00'0 0.0
2017-Dec-11 23:30N 40°40' W 074°00'0 0.0
2017-Dec-11 23:00N 40°40' W 074°00'0 0.0
2017-Dec-11 22:30N 40°40' W 074°00'0 0.0
2017-Dec-11 22:00N 40°40' W 074°00'0 0.0
2017-Dec-11 21:30N 40°40' W 074°00'0 0.0
2017-Dec-11 21:00N 40°40' W 074°00'0 0.6
2017-Dec-11 20:30N 40°40' W 074°00'0 0.0
2017-Dec-11 20:01N 40°40' W 074°00'0 0.0
2017-Dec-11 19:30N 40°40' W 074°00'0 0.0
2017-Dec-11 19:00N 40°40' W 074°00'0 0.0
2017-Dec-11 18:31N 40°40' W 074°00'0 0.0
2017-Dec-11 18:00N 40°40' W 074°00'0 0.0
2017-Dec-11 17:31N 40°40' W 074°00'0 0.0
2017-Dec-11 17:00N 40°40' W 074°00'0 0.0
2017-Dec-11 16:30N 40°40' W 074°00'1 2.2
2017-Dec-11 16:00N 40°41' W 074°01'1 2.1
2017-Dec-11 15:30N 40°41' W 074°00'0 0.0
2017-Dec-11 15:00N 40°41' W 074°00'0 0.0
2017-Dec-11 14:30N 40°41' W 074°00'0 0.5
2017-Dec-11 14:00N 40°41' W 074°00'1 2.6
2017-Dec-11 13:30N 40°40' W 074°00'0 0.0
2017-Dec-11 13:01N 40°40' W 074°00'0 0.0
2017-Dec-11 12:31N 40°40' W 074°00'0 0.0
2017-Dec-11 12:00N 40°40' W 074°00'0 0.0
2017-Dec-11 11:30N 40°40' W 074°00'0 0.0
2017-Dec-11 11:00N 40°40' W 074°00'0 0.0
2017-Dec-11 10:30N 40°40' W 074°00'0 0.0
2017-Dec-11 10:00N 40°40' W 074°00'0 0.0
2017-Dec-11 09:30N 40°40' W 074°00'0 0.0
2017-Dec-11 09:00N 40°40' W 074°00'0 0.0
2017-Dec-11 08:31N 40°40' W 074°00'0 0.0
2017-Dec-11 08:00N 40°40' W 074°00'0 0.0
2017-Dec-11 07:30N 40°40' W 074°00'0 0.0
2017-Dec-11 07:00N 40°40' W 074°00'0 0.0
2017-Dec-11 06:30N 40°40' W 074°00'0 0.0
2017-Dec-11 06:01N 40°40' W 074°00'0 0.0
2017-Dec-11 05:30N 40°40' W 074°00'0 0.0
2017-Dec-11 05:00N 40°40' W 074°00'0 0.0
2017-Dec-11 04:31N 40°40' W 074°00'0 0.0
2017-Dec-11 04:00N 40°40' W 074°00'0 0.0
2017-Dec-11 03:30N 40°40' W 074°00'0 0.0
2017-Dec-11 03:01N 40°40' W 074°00'0 0.0
2017-Dec-11 02:31N 40°40' W 074°00'0 0.0
2017-Dec-11 02:00N 40°40' W 074°00'0 0.0
2017-Dec-11 01:30N 40°40' W 074°00'0 0.0
2017-Dec-11 01:01N 40°40' W 074°00'0 0.0
2017-Dec-11 00:30N 40°40' W 074°00'0 0.0
2017-Dec-11 00:00N 40°40' W 074°00'0 0.0
2017-Dec-10 23:30N 40°40' W 074°00'0 0.0
2017-Dec-10 23:01N 40°40' W 074°00'0 0.0
2017-Dec-10 22:30N 40°40' W 074°00'0 0.0
2017-Dec-10 22:00N 40°40' W 074°00'0 0.0
2017-Dec-10 21:31N 40°40' W 074°00'0 0.0
2017-Dec-10 21:00N 40°40' W 074°00'0 0.0
2017-Dec-10 20:30N 40°40' W 074°00'0 0.0
2017-Dec-10 20:00N 40°40' W 074°00'0 0.0
2017-Dec-10 19:30N 40°40' W 074°00'0 0.0
2017-Dec-10 19:00N 40°40' W 074°00'0 0.6
2017-Dec-10 18:30N 40°40' W 074°00'0 0.0
2017-Dec-10 18:00N 40°40' W 074°00'0 0.0
2017-Dec-10 17:30N 40°40' W 074°00'0 0.0
2017-Dec-10 17:00N 40°40' W 074°00'0 0.0
2017-Dec-10 16:30N 40°40' W 074°00'0 0.0
2017-Dec-10 16:01N 40°40' W 074°00'0 0.0
2017-Dec-10 15:30N 40°40' W 074°00'0 0.0
2017-Dec-10 15:00N 40°40' W 074°00'0 0.0
2017-Dec-10 14:30N 40°40' W 074°00'0 0.0
2017-Dec-10 14:00N 40°40' W 074°00'0 0.0
2017-Dec-10 13:31N 40°40' W 074°00'0 0.0
2017-Dec-10 13:00N 40°40' W 074°00'0 0.0
2017-Dec-10 12:30N 40°40' W 074°00'0 0.0
2017-Dec-10 12:00N 40°40' W 074°00'0 0.0
2017-Dec-10 11:30N 40°40' W 074°00'0 0.0
2017-Dec-10 11:00N 40°40' W 074°00'0 0.0
2017-Dec-10 10:30N 40°40' W 074°00'0 0.0
2017-Dec-10 10:00N 40°40' W 074°00'0 0.0
2017-Dec-10 09:30N 40°40' W 074°00'0 0.0
2017-Dec-10 09:00N 40°40' W 074°00'0 0.0
2017-Dec-10 08:31N 40°40' W 074°00'0 0.0
2017-Dec-10 08:01N 40°40' W 074°00'0 0.0
2017-Dec-10 07:31N 40°40' W 074°00'0 0.0
2017-Dec-10 07:00N 40°40' W 074°00'0 0.0
2017-Dec-10 06:30N 40°40' W 074°00'0 0.0
2017-Dec-10 06:01N 40°40' W 074°00'0 0.0
2017-Dec-10 05:30N 40°40' W 074°00'0 0.0
2017-Dec-10 05:01N 40°40' W 074°00'0 0.0
2017-Dec-10 04:30N 40°40' W 074°00'0 0.0
2017-Dec-10 04:00N 40°40' W 074°00'0 0.0
2017-Dec-10 03:31N 40°40' W 074°00'0 0.0
2017-Dec-10 03:00N 40°40' W 074°00'0 0.0
2017-Dec-10 02:31N 40°40' W 074°00'0 0.0
2017-Dec-10 02:00N 40°40' W 074°00'0 0.0
2017-Dec-10 01:30N 40°40' W 074°00'1 2.1
2017-Dec-10 01:00N 40°41' W 074°01'1 2.4
2017-Dec-10 00:30N 40°40' W 074°01'0 0.2
2017-Dec-10 00:00N 40°40' W 074°01'3 7.0
2017-Dec-09 23:30N 40°39' W 074°05'4 7.7
2017-Dec-09 23:00N 40°40' W 074°00'0 0.0
2017-Dec-09 22:30N 40°40' W 074°00'0 0.5
2017-Dec-09 22:01N 40°40' W 074°00'0 0.0
2017-Dec-09 21:30N 40°40' W 074°00'0 0.0
2017-Dec-09 21:00N 40°40' W 074°00'0 0.0
2017-Dec-09 20:30N 40°40' W 074°00'0 0.0
2017-Dec-09 20:00N 40°40' W 074°00'0 0.5
2017-Dec-09 19:30N 40°40' W 074°00'0 0.5
2017-Dec-09 19:00N 40°40' W 074°00'0 0.0
2017-Dec-09 18:30N 40°40' W 074°00'0 0.0
2017-Dec-09 18:00N 40°40' W 074°00'0 0.0
2017-Dec-09 17:31N 40°40' W 074°00'0 0.0
2017-Dec-09 17:00N 40°40' W 074°00'0 0.0
2017-Dec-09 16:30N 40°40' W 074°00'0 0.0
2017-Dec-09 16:00N 40°40' W 074°00'0 0.0
2017-Dec-09 15:30N 40°40' W 074°00'0 0.0
2017-Dec-09 15:00N 40°40' W 074°00'0 0.0
2017-Dec-09 14:30N 40°40' W 074°00'0 0.0
2017-Dec-09 14:00N 40°40' W 074°00'0 0.0
2017-Dec-09 13:30N 40°40' W 074°00'0 0.0
2017-Dec-09 13:00N 40°40' W 074°00'0 0.0
2017-Dec-09 12:30N 40°40' W 074°00'0 0.0
2017-Dec-09 12:00N 40°40' W 074°00'0 0.0
2017-Dec-09 11:30N 40°40' W 074°00'0 0.0
2017-Dec-09 11:00N 40°40' W 074°00'0 0.0
2017-Dec-09 10:30N 40°40' W 074°00'0 0.0
2017-Dec-09 10:00N 40°40' W 074°00'0 0.0
2017-Dec-09 09:30N 40°40' W 074°00'0 0.0
2017-Dec-09 09:00N 40°40' W 074°00'0 0.0
2017-Dec-09 08:30N 40°40' W 074°00'0 0.0
2017-Dec-09 08:01N 40°40' W 074°00'0 0.0
2017-Dec-09 07:30N 40°40' W 074°00'0 0.0
2017-Dec-09 07:00N 40°40' W 074°00'0 0.0
2017-Dec-09 06:30N 40°40' W 074°00'0 0.5
2017-Dec-09 06:00N 40°40' W 074°00'1 1.4
2017-Dec-09 05:30N 40°40' W 074°01'0 0.1
2017-Dec-09 05:00N 40°40' W 074°01'0 0.0
2017-Dec-09 04:30N 40°40' W 074°01'0 0.0
2017-Dec-09 04:00N 40°40' W 074°01'1 1.1
2017-Dec-09 03:30N 40°40' W 074°00'0 0.0
2017-Dec-09 03:00N 40°40' W 074°00'0 0.0
2017-Dec-09 02:30N 40°40' W 074°00'0 0.0
2017-Dec-09 02:00N 40°40' W 074°00'0 0.0
2017-Dec-09 01:30N 40°40' W 074°00'0 0.0
2017-Dec-09 01:00N 40°40' W 074°00'0 0.0
2017-Dec-09 00:30N 40°40' W 074°00'0 0.0
2017-Dec-09 00:00N 40°40' W 074°00'0 0.0
2017-Dec-08 23:30N 40°40' W 074°00'0 0.0
2017-Dec-08 23:00N 40°40' W 074°00'0 0.0
2017-Dec-08 22:30N 40°40' W 074°00'  

Dump ship's entire track history